Aérodrome :
LOGIN :

S'inscrire | Disclaimer

   EN    FR    IT 

 










Légende :    VFR   VFR Marginal   IFR   IFR Intensif   IFR Très Intensif
Visi : 
Plafond : 
>= 8 km
>= 3000ft
5 à 8 km
1000 à 3000 ft
1500m à 5 km
500 à 1000 ft
800 à 1500m
200 à 500 ft
< 800m
< 200 ft
Symboles :   Orages  Brouillard  Fortes neiges  Fortes précipitations  Vent > 20 kt
SIGMETs :   Divers  Orages  Givrage  Turbulence  Onde Orograph.  Cendres Volcan.







- Altitude de l'aérodrome : 390 ft
- Code IATA : NQY
- Voir les cartes d'approche


EGHQ - Newquay

DERNIER METAR :
  • 201450Z 19004KT 150V240 CAVOK 16/09 Q1031

METARs EXPIRÉS :
  • 201420Z 17005KT CAVOK 16/09 Q1031
  • 201350Z 19007KT 150V240 CAVOK 16/10 Q1031
  • 201320Z 18008KT 140V210 9999 FEW024 16/10 Q1031
  • 201250Z 17007KT 140V210 9999 FEW024 16/10 Q1032
  • 201220Z 15007KT 120V200 9999 FEW024 16/11 Q1032

TAF TAF EGHQ
Valide du 20 à 15h jusqu'au 20 à 21h UTC


201358Z 2015/2021 20004KT 9999 FEW045
Pas de NOTAMs connus pour ce terrain.



MET'MAP, la Météo Aéronautique d'un coup d'oeil ! - Copyright ORBIFLY Décembre 2007 - Disclaimer

ORBIFLY MET'MAP TEAM :

Programmation & Développement : Alexandra Zaïnal
Conception & Développement : Baudouin d'Aumeries
Co-Programmation & Développement : Marc-Olivier Méhu
Soutien technique & logistique : Manuel Goepfert

Contact : metmap@orbifly.com




SOURCES & CREDITS :

   NOAA